Terminal Aerodrome Forecast
Issued by NWS

Home | Current Version | Previous Version | Text Only | Print | Product List | Glossary On
Versions: 1 2 3 4 5 6 7 8 9 10 11 12 13 14 15 16 17 18 19 20 21 22 23 24 25 26 27 28 29 30
000
FTUS45 KSLC 220857 AAB
TAFLGU
TAF AMD
KLGU 220857Z 2209/2306 VRB04KT P6SM BCFG SCT005 BKN080
     FM221600 VRB05KT 5SM BR VCSH SCT020 BKN050
     FM222000 18010KT 2SM -SN BR SCT007 BKN015=

USA.gov is the U.S. government's official web portal to all federal, state and local government web resources and services.